createdAt,value
2017-11-23T00:00:45.192Z,1.00
2017-11-23T00:01:45.188Z,1.00
2017-11-23T00:02:45.183Z,0.80
2017-11-23T00:03:45.180Z,0.90
2017-11-23T00:04:45.177Z,1.10
2017-11-23T00:05:45.175Z,1.00
2017-11-23T00:06:45.169Z,0.80
2017-11-23T00:07:45.167Z,0.80
2017-11-23T00:08:45.163Z,0.80
2017-11-23T00:09:45.160Z,0.90
2017-11-23T00:10:45.157Z,0.80
2017-11-23T00:11:45.156Z,1.00
2017-11-23T00:12:45.150Z,0.90
2017-11-23T00:13:45.147Z,1.00
2017-11-23T00:14:45.144Z,0.80
2017-11-23T00:15:45.142Z,1.00
2017-11-23T00:16:45.139Z,1.00
2017-11-23T00:17:45.142Z,1.00
2017-11-23T00:18:45.131Z,0.90
2017-11-23T00:19:45.128Z,0.80
2017-11-23T00:20:45.125Z,0.80
2017-11-23T00:21:45.121Z,1.00
2017-11-23T00:22:45.119Z,1.20
2017-11-23T00:23:45.115Z,0.90
2017-11-23T00:24:45.112Z,1.00
2017-11-23T00:25:45.107Z,0.80
2017-11-23T00:26:45.105Z,0.90
2017-11-23T00:27:45.102Z,0.80
2017-11-23T00:28:45.099Z,1.10
2017-11-23T00:29:45.095Z,1.00
2017-11-23T00:30:45.092Z,0.80
2017-11-23T00:31:45.089Z,1.00
2017-11-23T00:32:45.086Z,0.90
2017-11-23T00:33:45.132Z,0.90
2017-11-23T00:34:45.082Z,0.80
2017-11-23T00:35:45.077Z,0.90
2017-11-23T00:36:45.125Z,1.00
2017-11-23T00:37:45.068Z,0.90
2017-11-23T00:38:45.067Z,1.10
2017-11-23T00:39:45.063Z,0.80
2017-11-23T00:40:45.061Z,1.00
2017-11-23T00:41:45.056Z,1.10
2017-11-23T00:42:45.053Z,0.80
2017-11-23T00:43:45.050Z,1.00
2017-11-23T00:44:45.046Z,1.10
2017-11-23T00:45:45.051Z,0.80
2017-11-23T00:46:45.043Z,1.00
2017-11-23T00:47:45.038Z,1.00
2017-11-23T00:48:45.034Z,0.80
2017-11-23T00:49:45.032Z,0.70
2017-11-23T00:50:45.028Z,0.80
2017-11-23T00:51:45.026Z,0.80
2017-11-23T00:52:45.022Z,1.00
2017-11-23T00:53:45.017Z,1.10
2017-11-23T00:54:45.014Z,0.90
2017-11-23T00:55:45.013Z,0.80
2017-11-23T00:56:45.008Z,1.00
2017-11-23T00:57:45.006Z,0.90
2017-11-23T00:58:45.002Z,0.90
2017-11-23T00:59:44.999Z,0.80
2017-11-23T01:00:44.996Z,0.90
2017-11-23T01:01:44.993Z,0.90
2017-11-23T01:02:44.990Z,1.00
2017-11-23T01:03:44.986Z,1.30
2017-11-23T01:04:44.984Z,1.10
2017-11-23T01:05:44.979Z,1.10
2017-11-23T01:06:44.976Z,1.00
2017-11-23T01:07:44.974Z,0.90
2017-11-23T01:08:44.971Z,0.90
2017-11-23T01:09:44.968Z,1.00
2017-11-23T01:10:44.964Z,1.00
2017-11-23T01:11:44.961Z,0.80
2017-11-23T01:12:44.959Z,1.00
2017-11-23T01:13:44.955Z,0.80
2017-11-23T01:14:44.953Z,0.80
2017-11-23T01:15:44.949Z,0.80
2017-11-23T01:16:44.946Z,0.90
2017-11-23T01:17:44.941Z,0.90
2017-11-23T01:18:44.939Z,1.00
2017-11-23T01:19:44.936Z,1.00
2017-11-23T01:20:44.933Z,0.90
2017-11-23T01:21:44.929Z,1.00
2017-11-23T01:22:44.926Z,0.90
2017-11-23T01:23:44.929Z,0.80
2017-11-23T01:24:44.944Z,0.90
2017-11-23T01:25:44.918Z,0.90
2017-11-23T01:26:44.914Z,0.80
2017-11-23T01:27:44.911Z,0.90
2017-11-23T01:28:44.908Z,0.90
2017-11-23T01:29:44.910Z,1.00
2017-11-23T01:30:44.901Z,1.00
2017-11-23T01:31:44.897Z,0.90
2017-11-23T01:32:44.894Z,0.80
2017-11-23T01:33:44.893Z,1.10
2017-11-23T01:34:44.888Z,0.90
2017-11-23T01:35:44.885Z,0.70
2017-11-23T01:36:44.883Z,0.90
2017-11-23T01:37:44.879Z,0.80
2017-11-23T01:38:44.876Z,0.80
2017-11-23T01:39:44.872Z,0.80
2017-11-23T01:40:44.870Z,0.90
2017-11-23T01:41:44.866Z,0.80
2017-11-23T01:42:44.864Z,0.80
2017-11-23T01:43:44.861Z,0.80
2017-11-23T01:44:44.857Z,0.80
2017-11-23T01:45:44.854Z,1.00
2017-11-23T01:46:44.852Z,0.80
2017-11-23T01:47:44.848Z,0.80
2017-11-23T01:48:44.846Z,0.90
2017-11-23T01:49:44.892Z,0.70
2017-11-23T01:50:44.838Z,0.80
2017-11-23T01:51:44.835Z,0.80
2017-11-23T01:52:44.834Z,0.80
2017-11-23T01:53:44.828Z,0.80
2017-11-23T01:54:44.826Z,0.90
2017-11-23T01:55:44.823Z,1.00
2017-11-23T01:56:44.823Z,0.70
2017-11-23T01:57:44.867Z,0.80
2017-11-23T01:58:44.815Z,0.70
2017-11-23T01:59:44.812Z,0.70
2017-11-23T02:00:44.808Z,0.80
2017-11-23T02:01:44.807Z,0.80
2017-11-23T02:02:44.803Z,0.80
2017-11-23T02:03:44.799Z,0.70
2017-11-23T02:04:44.797Z,0.80
2017-11-23T02:05:44.793Z,0.70
2017-11-23T02:06:44.790Z,0.80
2017-11-23T02:07:44.788Z,0.80
2017-11-23T02:08:44.793Z,0.80
2017-11-23T02:09:44.782Z,0.90
2017-11-23T02:10:44.786Z,0.80
2017-11-23T02:11:44.774Z,0.80
2017-11-23T02:12:44.772Z,0.90
2017-11-23T02:13:44.770Z,0.90
2017-11-23T02:14:44.764Z,1.00
2017-11-23T02:15:44.766Z,0.80
2017-11-23T02:16:44.758Z,1.00
2017-11-23T02:17:44.755Z,1.00
2017-11-23T02:18:44.756Z,0.80
2017-11-23T02:19:44.748Z,0.70
2017-11-23T02:20:44.746Z,0.70
2017-11-23T02:21:44.742Z,0.90
2017-11-23T02:22:44.743Z,0.70
2017-11-23T02:23:44.738Z,0.90
2017-11-23T02:24:44.733Z,0.60
2017-11-23T02:25:44.736Z,0.90
2017-11-23T02:26:44.729Z,0.70
2017-11-23T02:27:44.724Z,0.70
2017-11-23T02:28:44.771Z,0.80
2017-11-23T02:29:44.717Z,0.90
2017-11-23T02:30:44.715Z,0.70
2017-11-23T02:31:44.712Z,0.80
2017-11-23T02:32:44.710Z,0.90
2017-11-23T02:33:44.706Z,1.00
2017-11-23T02:34:44.704Z,0.90
2017-11-23T02:35:44.699Z,0.90
2017-11-23T02:36:44.699Z,0.70
2017-11-23T02:37:44.692Z,0.90
2017-11-23T02:38:44.690Z,0.70
2017-11-23T02:39:44.737Z,0.80
2017-11-23T02:40:44.683Z,0.90
2017-11-23T02:41:44.680Z,0.70
2017-11-23T02:42:44.677Z,0.80
2017-11-23T02:43:44.681Z,0.90
2017-11-23T02:44:44.672Z,0.70
2017-11-23T02:45:44.668Z,0.80
2017-11-23T02:46:44.665Z,0.90
2017-11-23T02:47:44.661Z,0.80
2017-11-23T02:48:44.660Z,0.70
2017-11-23T02:49:44.654Z,0.70
2017-11-23T02:50:44.650Z,0.70
2017-11-23T02:51:44.648Z,0.80
2017-11-23T02:52:44.694Z,1.00
2017-11-23T02:53:44.639Z,1.00
2017-11-23T02:54:44.637Z,0.70
2017-11-23T02:55:44.632Z,0.70
2017-11-23T02:56:44.630Z,0.70
2017-11-23T02:57:44.626Z,0.70
2017-11-23T02:58:44.629Z,0.70
2017-11-23T02:59:44.620Z,1.00
2017-11-23T03:00:44.615Z,1.00
2017-11-23T03:01:44.611Z,0.90
2017-11-23T03:02:44.608Z,1.10
2017-11-23T03:03:44.605Z,0.90
2017-11-23T03:04:44.602Z,0.70
2017-11-23T03:05:44.598Z,0.60
2017-11-23T03:06:44.595Z,0.90
2017-11-23T03:07:44.601Z,0.70
2017-11-23T03:08:44.587Z,0.70
2017-11-23T03:09:44.584Z,1.20
2017-11-23T03:10:44.580Z,0.80
2017-11-23T03:11:44.578Z,0.70
2017-11-23T03:12:44.574Z,0.90
2017-11-23T03:13:44.571Z,0.80
2017-11-23T03:14:44.574Z,0.70
2017-11-23T03:15:44.562Z,0.70
2017-11-23T03:16:44.561Z,0.70
2017-11-23T03:17:44.607Z,0.90
2017-11-23T03:18:44.552Z,0.70
2017-11-23T03:19:44.550Z,0.70
2017-11-23T03:20:44.546Z,0.80
2017-11-23T03:21:44.542Z,0.80
2017-11-23T03:22:44.545Z,0.70
2017-11-23T03:23:44.536Z,0.80
2017-11-23T03:24:44.541Z,0.70
2017-11-23T03:25:44.631Z,0.90
2017-11-23T03:26:44.526Z,0.70
2017-11-23T03:27:44.572Z,0.80
2017-11-23T03:28:44.518Z,0.80
2017-11-23T03:29:44.514Z,0.90
2017-11-23T03:30:44.513Z,0.70
2017-11-23T03:31:44.510Z,0.80
2017-11-23T03:32:44.506Z,0.70
2017-11-23T03:33:44.500Z,0.80
2017-11-23T03:34:44.497Z,0.80
2017-11-23T03:35:44.492Z,0.70
2017-11-23T03:36:44.491Z,0.70
2017-11-23T03:37:44.489Z,1.10
2017-11-23T03:38:44.484Z,0.70
2017-11-23T03:39:44.480Z,0.80
2017-11-23T03:40:44.475Z,0.90
2017-11-23T03:41:44.472Z,0.80
2017-11-23T03:42:44.469Z,1.00
2017-11-23T03:43:44.465Z,0.80
2017-11-23T03:44:44.462Z,0.90
2017-11-23T03:45:44.460Z,1.00
2017-11-23T03:46:44.455Z,0.80
2017-11-23T03:47:44.451Z,0.90
2017-11-23T03:48:44.447Z,0.80
2017-11-23T03:49:44.443Z,0.90
2017-11-23T03:50:44.440Z,0.90
2017-11-23T03:51:44.438Z,0.90
2017-11-23T03:52:44.433Z,0.70
2017-11-23T03:53:44.457Z,0.90
2017-11-23T03:54:44.425Z,0.90
2017-11-23T03:55:44.423Z,0.90
2017-11-23T03:56:44.418Z,1.00
2017-11-23T03:57:44.414Z,0.80
2017-11-23T03:58:44.414Z,0.80
2017-11-23T03:59:44.407Z,0.80
2017-11-23T04:00:44.406Z,1.00
2017-11-23T04:01:44.400Z,0.80
2017-11-23T04:02:44.402Z,0.80
2017-11-23T04:03:44.396Z,0.80
2017-11-23T04:04:44.402Z,0.70
2017-11-23T04:05:44.390Z,1.10
2017-11-23T04:06:44.433Z,0.90
2017-11-23T04:07:44.378Z,0.80
2017-11-23T04:08:44.374Z,0.60
2017-11-23T04:09:44.389Z,0.90
2017-11-23T04:10:44.366Z,0.90
2017-11-23T04:11:44.363Z,0.90
2017-11-23T04:12:44.361Z,0.80
2017-11-23T04:13:44.357Z,0.90
2017-11-23T04:14:44.352Z,0.70
2017-11-23T04:15:44.349Z,0.80
2017-11-23T04:16:44.345Z,0.80
2017-11-23T04:17:44.340Z,0.80
2017-11-23T04:18:44.338Z,0.80
2017-11-23T04:19:44.334Z,1.00
2017-11-23T04:20:44.331Z,0.70
2017-11-23T04:21:44.331Z,0.80
2017-11-23T04:22:44.322Z,0.90
2017-11-23T04:23:44.321Z,0.70
2017-11-23T04:24:44.317Z,0.90
2017-11-23T04:25:44.361Z,0.90
2017-11-23T04:26:44.310Z,0.70
2017-11-23T04:27:44.304Z,0.80
2017-11-23T04:28:44.302Z,0.90
2017-11-23T04:29:44.297Z,0.90
2017-11-23T04:30:44.293Z,1.00
2017-11-23T04:31:44.289Z,1.10
2017-11-23T04:32:44.286Z,0.80
2017-11-23T04:33:44.282Z,0.80
2017-11-23T04:34:44.278Z,0.80
2017-11-23T04:35:44.276Z,0.80
2017-11-23T04:36:44.273Z,0.80
2017-11-23T04:37:44.267Z,0.70
2017-11-23T04:38:44.268Z,0.90
2017-11-23T04:39:44.262Z,0.90
2017-11-23T04:40:44.256Z,0.70
2017-11-23T04:41:44.253Z,0.70
2017-11-23T04:42:44.249Z,0.70
2017-11-23T04:43:44.245Z,0.70
2017-11-23T04:44:44.242Z,0.70
2017-11-23T04:45:44.237Z,0.90
2017-11-23T04:46:44.235Z,0.90
2017-11-23T04:47:44.232Z,0.70
2017-11-23T04:48:44.227Z,0.90
2017-11-23T04:49:44.222Z,0.80
2017-11-23T04:50:44.220Z,0.80
2017-11-23T04:51:44.266Z,0.70
2017-11-23T04:52:44.213Z,0.90
2017-11-23T04:53:44.208Z,0.70
2017-11-23T04:54:44.226Z,0.90
2017-11-23T04:55:44.200Z,0.80
2017-11-23T04:56:44.199Z,0.70
2017-11-23T04:57:44.192Z,0.90
2017-11-23T04:58:44.188Z,0.80
2017-11-23T04:59:44.185Z,0.80
2017-11-23T05:00:44.181Z,0.90
2017-11-23T05:01:44.177Z,0.80
2017-11-23T05:02:44.172Z,0.70
2017-11-23T05:03:44.169Z,0.80
2017-11-23T05:04:44.174Z,0.80
2017-11-23T05:05:44.160Z,0.80
2017-11-23T05:06:44.159Z,1.10
2017-11-23T05:07:44.154Z,0.90
2017-11-23T05:08:44.151Z,0.90
2017-11-23T05:09:44.145Z,1.00
2017-11-23T05:10:44.142Z,1.00
2017-11-23T05:11:44.144Z,0.90
2017-11-23T05:12:44.135Z,0.90
2017-11-23T05:13:44.132Z,0.80
2017-11-23T05:14:44.128Z,1.00
2017-11-23T05:15:44.124Z,1.10
2017-11-23T05:16:44.121Z,1.00
2017-11-23T05:17:44.122Z,0.90
2017-11-23T05:18:44.112Z,0.90
2017-11-23T05:19:44.108Z,0.80
2017-11-23T05:20:44.106Z,0.70
2017-11-23T05:21:44.101Z,0.90
2017-11-23T05:22:44.096Z,1.10
2017-11-23T05:23:44.092Z,0.90
2017-11-23T05:24:44.090Z,0.80
2017-11-23T05:25:44.083Z,0.90
2017-11-23T05:26:44.081Z,0.90
2017-11-23T05:27:44.079Z,0.80
2017-11-23T05:28:44.074Z,1.00
2017-11-23T05:29:44.071Z,0.90
2017-11-23T05:30:44.115Z,1.10
2017-11-23T05:31:44.061Z,0.80
2017-11-23T05:32:44.057Z,0.90
2017-11-23T05:33:44.055Z,0.90
2017-11-23T05:34:44.048Z,0.90
2017-11-23T05:35:44.045Z,0.90
2017-11-23T05:36:44.041Z,0.90
2017-11-23T05:37:44.037Z,0.90
2017-11-23T05:38:44.033Z,1.00
2017-11-23T05:39:44.031Z,1.00
2017-11-23T05:40:44.026Z,0.80
2017-11-23T05:41:44.070Z,1.00
2017-11-23T05:42:44.020Z,0.90
2017-11-23T05:43:44.015Z,0.90
2017-11-23T05:44:44.011Z,0.90
2017-11-23T05:45:44.007Z,1.00
2017-11-23T05:46:44.002Z,1.00
2017-11-23T05:47:43.998Z,1.00
2017-11-23T05:48:43.994Z,0.90
2017-11-23T05:49:43.990Z,1.00
2017-11-23T05:50:44.036Z,0.80
2017-11-23T05:51:43.983Z,0.90
2017-11-23T05:52:43.979Z,1.40
2017-11-23T05:53:43.980Z,0.80
2017-11-23T05:54:43.970Z,1.20
2017-11-23T05:55:43.966Z,1.10
2017-11-23T05:56:43.962Z,1.10
2017-11-23T05:57:43.958Z,1.20
2017-11-23T05:58:43.953Z,1.00
2017-11-23T05:59:43.951Z,1.20
2017-11-23T06:00:43.945Z,1.30
2017-11-23T06:01:43.941Z,0.90
2017-11-23T06:02:43.936Z,1.20
2017-11-23T06:03:43.982Z,1.20
2017-11-23T06:04:43.928Z,1.20
2017-11-23T06:05:43.973Z,0.90
2017-11-23T06:06:43.922Z,1.20
2017-11-23T06:07:43.915Z,1.20
2017-11-23T06:08:43.911Z,1.10
2017-11-23T06:09:43.909Z,1.00
2017-11-23T06:10:43.909Z,1.30
2017-11-23T06:11:43.897Z,1.30
2017-11-23T06:12:43.894Z,1.00
2017-11-23T06:13:43.888Z,1.20
2017-11-23T06:14:43.885Z,1.10
2017-11-23T06:15:43.882Z,1.40
2017-11-23T06:16:43.877Z,1.30
2017-11-23T06:17:43.874Z,1.50
2017-11-23T06:18:43.868Z,1.10
2017-11-23T06:19:43.864Z,1.70
2017-11-23T06:20:43.859Z,1.30
2017-11-23T06:21:43.853Z,1.60
2017-11-23T06:22:43.850Z,1.30
2017-11-23T06:23:43.846Z,2.40
2017-11-23T06:24:43.842Z,2.40
2017-11-23T06:25:43.837Z,1.90
2017-11-23T06:26:43.835Z,1.20
2017-11-23T06:27:43.829Z,1.30
2017-11-23T06:28:43.826Z,4.50
2017-11-23T06:29:43.820Z,2.30
2017-11-23T06:30:43.816Z,5.00
2017-11-23T06:31:43.811Z,14.30
2017-11-23T06:32:43.807Z,9.50
2017-11-23T06:33:43.803Z,10.70
2017-11-23T06:34:43.798Z,4.10
2017-11-23T06:35:43.795Z,2.80
2017-11-23T06:36:43.790Z,1.70
2017-11-23T06:37:43.786Z,1.50
2017-11-23T06:38:43.782Z,0.90
2017-11-23T06:39:43.778Z,1.10
2017-11-23T06:40:43.792Z,1.90
2017-11-23T06:41:43.785Z,1.60
2017-11-23T06:42:43.785Z,1.70
2017-11-23T06:43:43.765Z,2.10
2017-11-23T06:44:43.794Z,1.60
2017-11-23T06:45:43.753Z,1.20
2017-11-23T06:46:43.749Z,1.50
2017-11-23T06:47:43.744Z,1.80
2017-11-23T06:48:43.741Z,1.60
2017-11-23T06:49:43.736Z,1.50
2017-11-23T06:50:43.732Z,1.30
2017-11-23T06:51:43.728Z,1.30
2017-11-23T06:52:43.725Z,1.40
2017-11-23T06:53:43.719Z,1.10
2017-11-23T06:54:43.715Z,1.50
2017-11-23T06:55:43.712Z,1.40
2017-11-23T06:56:43.708Z,1.50
2017-11-23T06:57:43.703Z,1.30
2017-11-23T06:58:43.700Z,1.20
2017-11-23T06:59:43.696Z,1.30
2017-11-23T07:00:43.743Z,1.90
2017-11-23T07:01:43.687Z,2.00
2017-11-23T07:02:43.743Z,3.50
2017-11-23T07:03:43.682Z,4.00
2017-11-23T07:04:43.676Z,2.90
2017-11-23T07:05:43.670Z,4.80
2017-11-23T07:06:43.668Z,7.20
2017-11-23T07:07:43.664Z,3.70
2017-11-23T07:08:43.660Z,3.50
2017-11-23T07:09:43.662Z,3.10
2017-11-23T07:10:43.651Z,3.90
2017-11-23T07:11:43.697Z,3.10
2017-11-23T07:12:43.645Z,3.20
2017-11-23T07:13:43.641Z,3.20
2017-11-23T07:14:43.636Z,2.50
2017-11-23T07:15:43.636Z,1.90
2017-11-23T07:16:43.632Z,2.90
2017-11-23T07:17:43.629Z,2.80
2017-11-23T07:18:43.627Z,1.90
2017-11-23T07:19:43.629Z,2.10
2017-11-23T07:20:43.622Z,1.80
2017-11-23T07:21:43.620Z,1.50
2017-11-23T07:22:43.623Z,1.40
2017-11-23T07:23:43.621Z,1.60
2017-11-23T07:24:43.621Z,1.50
2017-11-23T07:25:43.621Z,1.50
2017-11-23T07:26:43.621Z,1.40
2017-11-23T07:27:43.623Z,1.30
2017-11-23T07:28:43.627Z,1.50
2017-11-23T07:29:43.626Z,1.40
2017-11-23T07:30:43.624Z,1.60
2017-11-23T07:31:43.624Z,2.00
2017-11-23T07:32:43.626Z,1.70
2017-11-23T07:33:43.625Z,1.70
2017-11-23T07:34:43.630Z,2.00
2017-11-23T07:35:43.628Z,2.10
2017-11-23T07:36:43.630Z,1.80
2017-11-23T07:37:43.629Z,1.70
2017-11-23T07:38:43.632Z,2.60
2017-11-23T07:39:43.631Z,2.40
2017-11-23T07:40:43.632Z,1.60
2017-11-23T07:41:43.632Z,1.70
2017-11-23T07:42:43.685Z,1.60
2017-11-23T07:43:43.636Z,2.00
2017-11-23T07:44:43.639Z,1.70
2017-11-23T07:45:43.639Z,2.00
2017-11-23T07:46:43.641Z,1.90
2017-11-23T07:47:43.642Z,1.70
2017-11-23T07:48:43.646Z,1.90
2017-11-23T07:49:43.648Z,2.40
2017-11-23T07:50:43.650Z,2.00
2017-11-23T07:51:43.652Z,2.30
2017-11-23T07:52:43.657Z,2.40
2017-11-23T07:53:43.658Z,2.00
2017-11-23T07:54:43.659Z,4.40
2017-11-23T07:55:43.662Z,3.10
2017-11-23T07:56:43.664Z,1.70
2017-11-23T07:57:43.667Z,1.90
2017-11-23T07:58:43.667Z,2.40
2017-11-23T07:59:43.670Z,1.80
2017-11-23T08:00:43.672Z,2.00
2017-11-23T08:01:43.672Z,1.90
2017-11-23T08:02:43.675Z,2.10
2017-11-23T08:03:43.675Z,2.30
2017-11-23T08:04:43.677Z,2.20
2017-11-23T08:05:43.678Z,2.10
2017-11-23T08:06:43.679Z,1.70
2017-11-23T08:07:43.680Z,2.80
2017-11-23T08:08:43.682Z,2.10
2017-11-23T08:09:43.688Z,2.00
2017-11-23T08:10:43.682Z,2.10
2017-11-23T08:11:43.682Z,1.70
2017-11-23T08:12:43.682Z,1.80
2017-11-23T08:13:43.682Z,1.60
2017-11-23T08:14:43.681Z,1.70
2017-11-23T08:15:43.682Z,1.40
2017-11-23T08:16:43.683Z,1.60
2017-11-23T08:17:43.683Z,1.20
2017-11-23T08:18:43.684Z,1.30
2017-11-23T08:19:43.691Z,1.00
2017-11-23T08:20:43.685Z,1.60
2017-11-23T08:21:43.686Z,1.30
2017-11-23T08:22:43.686Z,1.50
2017-11-23T08:23:43.688Z,1.40
2017-11-23T08:24:43.687Z,1.40
2017-11-23T08:25:43.689Z,1.40
2017-11-23T08:26:43.689Z,1.10
2017-11-23T08:27:43.687Z,2.10
2017-11-23T08:28:43.689Z,2.00
2017-11-23T08:29:43.688Z,1.30
2017-11-23T08:30:43.688Z,1.10
2017-11-23T08:31:43.688Z,1.40
2017-11-23T08:32:43.696Z,1.20
2017-11-23T08:33:43.689Z,1.30
2017-11-23T08:34:43.706Z,1.10
2017-11-23T08:35:43.688Z,1.20
2017-11-23T08:36:43.688Z,1.30
2017-11-23T08:37:43.688Z,1.20
2017-11-23T08:38:43.686Z,1.50
2017-11-23T08:39:43.695Z,1.40
2017-11-23T08:40:43.686Z,1.10
2017-11-23T08:41:43.734Z,1.50
2017-11-23T08:42:43.684Z,1.20
2017-11-23T08:43:43.690Z,1.30
2017-11-23T08:44:43.685Z,1.20
2017-11-23T08:45:43.683Z,1.40
2017-11-23T08:46:43.681Z,1.40
2017-11-23T08:47:43.681Z,1.20
2017-11-23T08:48:43.681Z,1.30
2017-11-23T08:49:43.680Z,1.30
2017-11-23T08:50:43.688Z,1.60
2017-11-23T08:51:43.729Z,1.20
2017-11-23T08:52:43.680Z,1.20
2017-11-23T08:53:43.679Z,1.10
2017-11-23T08:54:43.679Z,1.20
2017-11-23T08:55:43.686Z,1.10
2017-11-23T08:56:43.678Z,1.30
2017-11-23T08:57:43.680Z,1.20
2017-11-23T08:58:43.681Z,1.10
2017-11-23T08:59:43.680Z,1.50
2017-11-23T09:00:43.679Z,1.20
2017-11-23T09:01:43.684Z,0.90
2017-11-23T09:02:43.678Z,1.20
2017-11-23T09:03:43.677Z,1.30
2017-11-23T09:04:43.678Z,1.20
2017-11-23T09:05:43.676Z,1.20
2017-11-23T09:06:43.676Z,1.20
2017-11-23T09:07:43.677Z,1.00
2017-11-23T09:08:43.678Z,0.90
2017-11-23T09:09:43.677Z,1.20
2017-11-23T09:10:43.677Z,1.10
2017-11-23T09:11:43.677Z,1.00
2017-11-23T09:12:43.679Z,0.90
2017-11-23T09:13:43.678Z,1.10
2017-11-23T09:14:43.680Z,1.10
2017-11-23T09:15:43.680Z,1.50
2017-11-23T09:16:43.682Z,1.70
2017-11-23T09:17:43.680Z,1.30
2017-11-23T09:18:43.680Z,1.50
2017-11-23T09:19:43.683Z,1.40
2017-11-23T09:20:43.682Z,1.50
2017-11-23T09:21:43.682Z,1.20
2017-11-23T09:22:43.682Z,3.20
2017-11-23T09:23:43.684Z,2.60
2017-11-23T09:24:43.683Z,2.60
2017-11-23T09:25:43.686Z,2.00
2017-11-23T09:26:43.686Z,1.30
2017-11-23T09:27:43.685Z,1.10
2017-11-23T09:28:43.686Z,1.10
2017-11-23T09:29:43.688Z,1.00
2017-11-23T09:30:43.694Z,1.10
2017-11-23T09:31:43.698Z,1.20
2017-11-23T09:32:43.740Z,1.20
2017-11-23T09:33:43.744Z,1.60
2017-11-23T09:34:43.694Z,1.60
2017-11-23T09:35:43.696Z,1.20
2017-11-23T09:36:43.698Z,1.20
2017-11-23T09:37:43.700Z,1.10
2017-11-23T09:38:43.702Z,1.20
2017-11-23T09:39:43.705Z,1.20
2017-11-23T09:40:43.707Z,1.20
2017-11-23T09:41:43.709Z,1.30
2017-11-23T09:42:43.714Z,1.20
2017-11-23T09:43:43.715Z,1.40
2017-11-23T09:44:43.719Z,1.30
2017-11-23T09:45:43.720Z,1.50
2017-11-23T09:46:43.726Z,1.10
2017-11-23T09:47:43.728Z,1.00
2017-11-23T09:48:43.730Z,1.10
2017-11-23T09:49:43.735Z,1.80
2017-11-23T09:50:43.739Z,1.10
2017-11-23T09:51:43.743Z,1.00
2017-11-23T09:52:43.746Z,1.10
2017-11-23T09:53:43.751Z,1.20
2017-11-23T09:54:43.755Z,1.20
2017-11-23T09:55:43.759Z,1.20
2017-11-23T09:56:43.763Z,1.50
2017-11-23T09:57:43.765Z,1.20
2017-11-23T09:58:43.769Z,1.00
2017-11-23T09:59:43.774Z,1.30
2017-11-23T10:00:43.780Z,1.10
2017-11-23T10:01:43.782Z,1.20
2017-11-23T10:02:43.786Z,1.20
2017-11-23T10:03:43.795Z,1.00
2017-11-23T10:04:43.812Z,1.00
2017-11-23T10:05:43.800Z,1.00
2017-11-23T10:06:43.809Z,1.30
2017-11-23T10:07:43.811Z,1.30
2017-11-23T10:08:43.817Z,1.30
2017-11-23T10:09:43.822Z,1.20
2017-11-23T10:10:43.828Z,0.90
2017-11-23T10:11:43.838Z,1.10
2017-11-23T10:12:43.839Z,1.40
2017-11-23T10:13:43.845Z,1.00
2017-11-23T10:14:43.873Z,1.20
2017-11-23T10:15:43.859Z,1.30
2017-11-23T10:16:43.866Z,1.20
2017-11-23T10:17:43.870Z,0.90
2017-11-23T10:18:43.878Z,1.10
2017-11-23T10:19:43.883Z,1.20
2017-11-23T10:20:43.889Z,1.00
2017-11-23T10:21:43.949Z,1.00
2017-11-23T10:22:43.902Z,0.90
2017-11-23T10:23:43.910Z,1.20
2017-11-23T10:24:43.915Z,0.90
2017-11-23T10:25:43.923Z,0.90
2017-11-23T10:26:43.930Z,0.90
2017-11-23T10:27:43.943Z,1.20
2017-11-23T10:28:43.943Z,1.50
2017-11-23T10:29:43.948Z,1.20
2017-11-23T10:30:43.955Z,1.10
2017-11-23T10:31:44.011Z,1.10
2017-11-23T10:32:43.968Z,0.90
2017-11-23T10:33:43.973Z,1.20
2017-11-23T10:34:43.979Z,1.10
2017-11-23T10:35:43.984Z,1.50
2017-11-23T10:36:43.991Z,1.10
2017-11-23T10:37:43.995Z,1.10
2017-11-23T10:38:44.002Z,0.90
2017-11-23T10:39:44.007Z,0.80
2017-11-23T10:40:44.013Z,1.40
2017-11-23T10:41:44.017Z,0.90
2017-11-23T10:42:44.023Z,1.30
2017-11-23T10:43:44.033Z,1.00
2017-11-23T10:44:44.034Z,1.00
2017-11-23T10:45:44.039Z,1.10
2017-11-23T10:46:44.044Z,1.00
2017-11-23T10:47:44.052Z,1.00
2017-11-23T10:48:44.055Z,1.20
2017-11-23T10:49:44.061Z,1.10
2017-11-23T10:50:44.066Z,0.90
2017-11-23T10:51:44.123Z,0.90
2017-11-23T10:52:44.077Z,0.80
2017-11-23T10:53:44.086Z,0.80
2017-11-23T10:54:44.087Z,1.10
2017-11-23T10:55:44.094Z,0.90
2017-11-23T10:56:44.101Z,1.00
2017-11-23T10:57:44.105Z,0.80
2017-11-23T10:58:44.109Z,1.00
2017-11-23T10:59:44.167Z,1.10
2017-11-23T11:00:44.122Z,1.20
2017-11-23T11:01:44.177Z,1.10
2017-11-23T11:02:44.132Z,1.00
2017-11-23T11:03:44.138Z,0.90
2017-11-23T11:04:44.144Z,1.00
2017-11-23T11:05:44.148Z,2.20
2017-11-23T11:06:44.254Z,1.10
2017-11-23T11:07:44.159Z,1.00
2017-11-23T11:08:44.166Z,1.00
2017-11-23T11:09:44.170Z,1.00
2017-11-23T11:10:44.175Z,1.00
2017-11-23T11:11:44.180Z,0.90
2017-11-23T11:12:44.188Z,1.30
2017-11-23T11:13:44.190Z,0.90
2017-11-23T11:14:44.198Z,1.00
2017-11-23T11:15:44.203Z,1.10
2017-11-23T11:16:44.209Z,1.40
2017-11-23T11:17:44.212Z,1.00
2017-11-23T11:18:44.218Z,1.00
2017-11-23T11:19:44.223Z,0.90
2017-11-23T11:20:44.230Z,1.00
2017-11-23T11:21:44.235Z,0.80
2017-11-23T11:22:44.240Z,1.20
2017-11-23T11:23:44.246Z,0.90
2017-11-23T11:24:44.292Z,1.00
2017-11-23T11:25:44.257Z,1.10
2017-11-23T11:26:44.263Z,0.90
2017-11-23T11:27:44.268Z,2.60
2017-11-23T11:28:44.273Z,1.40
2017-11-23T11:29:44.277Z,1.20
2017-11-23T11:30:44.284Z,1.10
2017-11-23T11:31:44.296Z,1.00
2017-11-23T11:32:44.294Z,0.90
2017-11-23T11:33:44.298Z,0.90
2017-11-23T11:34:44.304Z,1.00
2017-11-23T11:35:44.314Z,1.10
2017-11-23T11:36:44.365Z,1.10
2017-11-23T11:37:44.319Z,0.90
2017-11-23T11:38:44.326Z,1.10
2017-11-23T11:39:44.330Z,1.20
2017-11-23T11:40:44.336Z,1.50
2017-11-23T11:41:44.339Z,1.20
2017-11-23T11:42:44.345Z,1.30
2017-11-23T11:43:44.350Z,1.10
2017-11-23T11:44:44.355Z,1.10
2017-11-23T11:45:44.359Z,0.90
2017-11-23T11:46:44.364Z,1.10
2017-11-23T11:47:44.372Z,1.40
2017-11-23T11:48:44.375Z,1.20
2017-11-23T11:49:44.381Z,1.20
2017-11-23T11:50:44.394Z,1.10
2017-11-23T11:51:44.694Z,0.90
2017-11-23T11:52:44.397Z,1.20
2017-11-23T11:53:44.403Z,1.10
2017-11-23T11:54:44.414Z,1.20
2017-11-23T11:55:44.420Z,1.20
2017-11-23T11:56:44.672Z,1.20
2017-11-23T11:57:44.427Z,1.20
2017-11-23T11:58:44.434Z,1.30
2017-11-23T11:59:44.442Z,1.40
2017-11-23T12:00:44.498Z,1.40
2017-11-23T12:01:44.453Z,0.90
2017-11-23T12:02:44.460Z,1.10
2017-11-23T12:03:44.470Z,1.20
2017-11-23T12:04:44.475Z,1.20
2017-11-23T12:05:44.480Z,1.30
2017-11-23T12:06:44.487Z,1.30
2017-11-23T12:07:44.495Z,1.20
2017-11-23T12:08:44.503Z,1.00
2017-11-23T12:09:44.508Z,1.00
2017-11-23T12:10:44.516Z,1.00
2017-11-23T12:11:44.524Z,1.00
2017-11-23T12:12:44.531Z,1.00
2017-11-23T12:13:44.538Z,1.20
2017-11-23T12:14:44.544Z,0.90
2017-11-23T12:15:44.559Z,1.10
2017-11-23T12:16:44.568Z,1.10
2017-11-23T12:17:44.568Z,1.10
2017-11-23T12:18:44.575Z,1.10
2017-11-23T12:19:44.582Z,1.00
2017-11-23T12:20:44.590Z,1.40
2017-11-23T12:21:44.599Z,1.50
2017-11-23T12:22:44.605Z,1.30
2017-11-23T12:23:44.613Z,1.50
2017-11-23T12:24:44.620Z,1.40
2017-11-23T12:25:44.626Z,1.30
2017-11-23T12:26:44.635Z,1.30
2017-11-23T12:27:44.660Z,1.20
2017-11-23T12:28:44.652Z,1.00
2017-11-23T12:29:44.657Z,1.00
2017-11-23T12:30:44.665Z,1.10
2017-11-23T12:31:44.675Z,1.30
2017-11-23T12:32:44.681Z,1.40
2017-11-23T12:33:44.689Z,1.20
2017-11-23T12:34:44.696Z,1.10
2017-11-23T12:35:44.705Z,1.00
2017-11-23T12:36:44.711Z,1.10
2017-11-23T12:37:44.721Z,1.00
2017-11-23T12:38:44.726Z,1.00
2017-11-23T12:39:44.734Z,0.90
2017-11-23T12:40:44.742Z,1.00
2017-11-23T12:41:44.749Z,1.00
2017-11-23T12:42:44.758Z,1.00
2017-11-23T12:43:44.764Z,1.00
2017-11-23T12:44:44.775Z,1.00
2017-11-23T12:45:44.779Z,1.00
2017-11-23T12:46:44.785Z,1.40
2017-11-23T12:47:44.792Z,1.00
2017-11-23T12:48:44.809Z,0.90
2017-11-23T12:49:44.808Z,1.30
2017-11-23T12:50:44.814Z,1.00
2017-11-23T12:51:44.823Z,0.90
2017-11-23T12:52:44.828Z,1.10
2017-11-23T12:53:44.836Z,1.10
2017-11-23T12:54:44.843Z,0.90
2017-11-23T12:55:44.849Z,1.10
2017-11-23T12:56:44.857Z,0.90
2017-11-23T12:57:44.863Z,1.30
2017-11-23T12:58:44.871Z,1.30
2017-11-23T12:59:44.877Z,1.00
2017-11-23T13:00:44.885Z,1.20
2017-11-23T13:01:44.893Z,1.60
2017-11-23T13:02:44.900Z,1.20
2017-11-23T13:03:44.905Z,1.10
2017-11-23T13:04:44.922Z,1.20
2017-11-23T13:05:44.920Z,0.90
2017-11-23T13:06:44.927Z,1.10
2017-11-23T13:07:44.934Z,1.40
2017-11-23T13:08:44.941Z,1.30
2017-11-23T13:09:44.948Z,1.20
2017-11-23T13:10:44.957Z,1.20
2017-11-23T13:11:44.963Z,1.10
2017-11-23T13:12:44.969Z,1.00
2017-11-23T13:13:44.976Z,1.30
2017-11-23T13:14:44.983Z,1.20
2017-11-23T13:15:44.995Z,1.20
2017-11-23T13:16:44.996Z,1.40
2017-11-23T13:17:45.003Z,1.40
2017-11-23T13:18:45.010Z,1.40